Time;durP1;ratioP1;P1;durP2;ratioP2;P2;SDS_P1;SDS_P2;PMS_P1;PMS_P2;Temp;Humidity;BMP_temperature;BMP_pressure;BME280_temperature;BME280_humidity;BME280_pressure;Samples;Min_cycle;Max_cycle;Signal;HPM_P1;HPM_P2
2022/01/31 00:02:13;;;;;;;30.90;5.80;;;;;;;;;;5040443;28;20088;-62
2022/01/31 00:04:39;;;;;;;30.42;4.35;;;;;;;;;;5022525;28;20100;-63
2022/01/31 00:07:05;;;;;;;30.58;4.88;;;;;;;;;;5006588;28;20045;-62
2022/01/31 00:09:31;;;;;;;33.38;4.57;;;;;;;;;;5006455;28;20041;-63
2022/01/31 00:12:04;;;;;;;37.22;4.95;;;;;;;;;;4990247;28;20472;-63
2022/01/31 00:16:59;;;;;;;31.35;5.15;;;;;;;;;;5006183;28;20038;-62
2022/01/31 00:19:25;;;;;;;25.50;4.93;;;;;;;;;;5007818;28;20045;-62
2022/01/31 00:21:52;;;;;;;34.30;6.20;;;;;;;;;;4990356;28;20188;-63
2022/01/31 00:24:18;;;;;;;30.70;5.90;;;;;;;;;;5006452;28;20149;-63
2022/01/31 00:26:44;;;;;;;28.45;6.13;;;;;;;;;;5007596;28;20050;-62
2022/01/31 00:29:10;;;;;;;31.17;5.43;;;;;;;;;;5005950;28;20420;-62
2022/01/31 00:31:36;;;;;;;28.77;5.65;;;;;;;;;;5007781;28;20057;-62
2022/01/31 00:34:02;;;;;;;28.05;5.57;;;;;;;;;;5039174;28;20049;-62
2022/01/31 00:36:28;;;;;;;24.70;4.30;;;;;;;;;;5006082;28;20128;-62
2022/01/31 00:38:54;;;;;;;29.85;5.72;;;;;;;;;;5007210;28;20060;-62
2022/01/31 00:41:20;;;;;;;25.02;4.53;;;;;;;;;;5006950;28;20045;-63
2022/01/31 00:43:57;;;;;;;26.92;5.05;;;;;;;;;;5006272;28;20041;-62
2022/01/31 00:46:29;;;;;;;30.35;5.72;;;;;;;;;;5004348;28;20149;-62
2022/01/31 00:48:55;;;;;;;29.27;5.13;;;;;;;;;;5007377;28;20049;-61
2022/01/31 00:51:21;;;;;;;24.88;4.38;;;;;;;;;;5005979;28;20030;-62
2022/01/31 00:53:47;;;;;;;20.92;4.13;;;;;;;;;;5007455;28;20041;-61
2022/01/31 00:56:13;;;;;;;30.75;5.18;;;;;;;;;;5006514;28;20337;-63
2022/01/31 00:58:39;;;;;;;27.50;4.93;;;;;;;;;;5038203;28;20041;-62
2022/01/31 01:01:05;;;;;;;24.90;4.30;;;;;;;;;;5007054;28;20159;-62
2022/01/31 01:03:31;;;;;;;27.77;4.75;;;;;;;;;;5038802;28;20042;-62
2022/01/31 01:05:57;;;;;;;25.60;5.35;;;;;;;;;;5039101;28;20057;-62
2022/01/31 01:08:23;;;;;;;23.63;4.60;;;;;;;;;;5005259;28;20121;-61
2022/01/31 01:10:49;;;;;;;30.23;5.13;;;;;;;;;;5006476;28;20040;-62
2022/01/31 01:13:15;;;;;;;21.98;4.07;;;;;;;;;;5021988;28;20041;-61
2022/01/31 01:15:41;;;;;;;29.83;5.03;;;;;;;;;;5005131;28;20065;-61
2022/01/31 01:18:07;;;;;;;29.50;6.43;;;;;;;;;;5006718;28;20405;-62
2022/01/31 01:20:33;;;;;;;27.52;5.22;;;;;;;;;;5037785;28;20050;-62
2022/01/31 01:22:59;;;;;;;29.55;5.50;;;;;;;;;;5006948;28;20042;-62
2022/01/31 01:25:25;;;;;;;27.85;5.35;;;;;;;;;;5006908;28;20044;-63
2022/01/31 01:27:53;;;;;;;28.38;6.28;;;;;;;;;;5006269;28;20049;-63
2022/01/31 01:30:20;;;;;;;32.13;6.90;;;;;;;;;;5005142;28;20480;-63
2022/01/31 01:33:01;;;;;;;27.27;6.75;;;;;;;;;;5006767;28;20105;-62
2022/01/31 01:35:32;;;;;;;27.45;6.10;;;;;;;;;;5007108;28;20084;-62
2022/01/31 01:38:05;;;;;;;35.80;8.10;;;;;;;;;;5006805;28;20057;-63
2022/01/31 01:40:32;;;;;;;27.52;7.28;;;;;;;;;;5005302;28;20056;-63
2022/01/31 01:42:59;;;;;;;20.13;5.60;;;;;;;;;;5009031;28;20046;-62
2022/01/31 01:45:25;;;;;;;31.25;8.13;;;;;;;;;;5008886;28;20112;-63
2022/01/31 01:47:51;;;;;;;39.63;9.80;;;;;;;;;;5025530;28;20055;-63
2022/01/31 01:50:17;;;;;;;36.83;9.40;;;;;;;;;;5040879;28;20156;-63
2022/01/31 01:52:44;;;;;;;36.85;9.40;;;;;;;;;;5009652;28;20049;-63
2022/01/31 01:55:10;;;;;;;41.90;11.23;;;;;;;;;;5010297;28;20113;-62
2022/01/31 01:57:36;;;;;;;30.17;8.98;;;;;;;;;;5010383;28;20060;-62
2022/01/31 02:00:02;;;;;;;31.25;10.50;;;;;;;;;;5010293;28;20069;-62
2022/01/31 02:02:28;;;;;;;31.33;10.35;;;;;;;;;;5009860;28;20080;-63
2022/01/31 02:04:54;;;;;;;41.63;10.85;;;;;;;;;;5010473;28;20073;-63
2022/01/31 02:07:20;;;;;;;34.53;10.70;;;;;;;;;;5041235;28;20076;-63
2022/01/31 02:09:53;;;;;;;29.65;10.27;;;;;;;;;;5041988;28;20049;-63
2022/01/31 02:12:19;;;;;;;33.15;13.07;;;;;;;;;;5041391;28;20042;-62
2022/01/31 02:14:45;;;;;;;30.27;13.98;;;;;;;;;;5025538;28;20042;-62
2022/01/31 02:17:11;;;;;;;37.42;15.32;;;;;;;;;;5008302;28;20042;-62
2022/01/31 02:19:38;;;;;;;39.67;17.27;;;;;;;;;;5041713;28;20164;-63
2022/01/31 02:22:05;;;;;;;33.72;14.75;;;;;;;;;;5009382;28;20049;-63
2022/01/31 02:24:32;;;;;;;32.67;14.43;;;;;;;;;;5008452;28;20042;-62
2022/01/31 02:26:58;;;;;;;37.55;16.73;;;;;;;;;;5042021;28;20129;-62
2022/01/31 02:29:25;;;;;;;37.35;18.13;;;;;;;;;;5042076;28;20077;-62
2022/01/31 02:31:51;;;;;;;34.92;17.75;;;;;;;;;;5009337;28;20697;-63
2022/01/31 02:34:17;;;;;;;38.72;17.75;;;;;;;;;;4993464;28;20053;-62
2022/01/31 02:36:43;;;;;;;38.72;20.00;;;;;;;;;;5010361;28;20049;-62
2022/01/31 02:39:10;;;;;;;37.35;20.23;;;;;;;;;;5010287;28;20483;-63
2022/01/31 02:41:43;;;;;;;40.08;19.70;;;;;;;;;;5012028;28;20499;-61
2022/01/31 02:44:16;;;;;;;31.73;19.23;;;;;;;;;;5010108;28;20045;-62
2022/01/31 02:46:52;;;;;;;37.05;20.27;;;;;;;;;;5043446;28;20046;-62
2022/01/31 02:49:20;;;;;;;40.90;23.27;;;;;;;;;;5043266;28;20041;-62
2022/01/31 02:51:50;;;;;;;32.20;21.13;;;;;;;;;;5010684;28;20060;-61
2022/01/31 02:54:17;;;;;;;36.92;20.95;;;;;;;;;;5009381;28;20049;-61
2022/01/31 02:56:43;;;;;;;31.63;22.02;;;;;;;;;;5043405;28;20049;-61
2022/01/31 02:59:09;;;;;;;31.90;20.15;;;;;;;;;;5043119;28;20088;-63
2022/01/31 03:01:35;;;;;;;34.20;21.75;;;;;;;;;;5009584;28;20054;-63
2022/01/31 03:04:01;;;;;;;29.45;21.02;;;;;;;;;;5009449;28;20488;-63
2022/01/31 03:06:27;;;;;;;36.58;21.30;;;;;;;;;;5026284;28;20104;-63
2022/01/31 03:08:53;;;;;;;29.65;20.88;;;;;;;;;;5009400;28;20072;-63
2022/01/31 03:11:19;;;;;;;39.38;23.13;;;;;;;;;;5026187;28;20092;-63
2022/01/31 03:13:46;;;;;;;34.97;23.75;;;;;;;;;;5009341;28;20037;-63
2022/01/31 03:16:12;;;;;;;38.60;23.75;;;;;;;;;;5042383;28;20072;-64
2022/01/31 03:18:38;;;;;;;31.80;21.95;;;;;;;;;;5009160;28;20049;-63
2022/01/31 03:21:04;;;;;;;33.15;24.17;;;;;;;;;;5042453;28;20042;-63
2022/01/31 03:23:30;;;;;;;27.48;19.35;;;;;;;;;;5009318;28;20034;-63
2022/01/31 03:25:56;;;;;;;37.83;24.73;;;;;;;;;;5025757;28;20064;-61
2022/01/31 03:28:22;;;;;;;45.30;27.20;;;;;;;;;;5042117;28;20046;-63
2022/01/31 03:30:48;;;;;;;35.45;23.02;;;;;;;;;;5009379;28;20044;-63
2022/01/31 03:33:14;;;;;;;36.83;24.70;;;;;;;;;;5008790;28;20046;-63
2022/01/31 03:35:40;;;;;;;36.70;25.55;;;;;;;;;;4992924;28;20048;-63
2022/01/31 03:38:06;;;;;;;44.90;26.27;;;;;;;;;;4992439;28;20053;-64
2022/01/31 03:40:32;;;;;;;37.75;25.77;;;;;;;;;;5008812;28;20492;-64
2022/01/31 03:42:58;;;;;;;35.75;26.40;;;;;;;;;;5042255;28;20041;-63
2022/01/31 03:45:25;;;;;;;42.70;29.58;;;;;;;;;;5041702;28;20049;-64
2022/01/31 03:47:51;;;;;;;47.10;30.15;;;;;;;;;;5008620;28;20132;-63
2022/01/31 03:50:18;;;;;;;33.78;27.00;;;;;;;;;;5025058;28;20076;-62
2022/01/31 03:52:44;;;;;;;34.70;25.70;;;;;;;;;;5008951;28;20034;-62
2022/01/31 03:55:12;;;;;;;38.20;25.98;;;;;;;;;;5008282;28;20056;-63
2022/01/31 03:57:38;;;;;;;44.95;29.35;;;;;;;;;;5008681;28;20328;-63
2022/01/31 04:00:05;;;;;;;42.30;28.92;;;;;;;;;;5008416;28;20105;-63
2022/01/31 04:02:32;;;;;;;48.58;31.10;;;;;;;;;;5001302;28;20382;-63
2022/01/31 04:04:58;;;;;;;40.80;26.77;;;;;;;;;;5040166;28;20049;-63
2022/01/31 04:07:24;;;;;;;43.35;29.35;;;;;;;;;;5041202;28;20100;-62
2022/01/31 04:09:50;;;;;;;44.60;30.92;;;;;;;;;;5008135;28;20113;-63
2022/01/31 04:12:16;;;;;;;47.40;29.52;;;;;;;;;;5008030;28;20152;-62
2022/01/31 04:14:42;;;;;;;51.72;31.27;;;;;;;;;;5008767;28;20042;-63
2022/01/31 04:17:10;;;;;;;43.50;28.10;;;;;;;;;;5041475;28;20793;-63
2022/01/31 04:19:38;;;;;;;47.50;29.90;;;;;;;;;;5009872;28;20041;-63
2022/01/31 04:22:07;;;;;;;36.95;23.17;;;;;;;;;;5008218;28;20500;-63
2022/01/31 04:24:34;;;;;;;43.42;23.48;;;;;;;;;;5009881;28;20046;-62
2022/01/31 04:27:05;;;;;;;32.70;16.63;;;;;;;;;;5008191;28;20048;-62
2022/01/31 04:29:34;;;;;;;29.95;15.00;;;;;;;;;;5008266;28;20038;-64
2022/01/31 04:32:00;;;;;;;38.20;13.38;;;;;;;;;;5007659;28;20042;-62
2022/01/31 04:34:26;;;;;;;34.47;14.05;;;;;;;;;;5009207;28;20054;-62
2022/01/31 04:36:52;;;;;;;25.45;9.50;;;;;;;;;;5009504;28;20056;-62
2022/01/31 04:39:19;;;;;;;21.85;6.07;;;;;;;;;;5041456;28;20428;-62
2022/01/31 04:41:46;;;;;;;23.98;3.92;;;;;;;;;;5008019;28;20057;-63
2022/01/31 04:44:13;;;;;;;26.65;3.53;;;;;;;;;;5040851;28;20461;-63
2022/01/31 04:46:40;;;;;;;27.98;2.38;;;;;;;;;;5008020;28;20065;-63
2022/01/31 04:49:06;;;;;;;19.30;2.20;;;;;;;;;;5040779;28;20492;-63
2022/01/31 04:51:33;;;;;;;24.60;2.63;;;;;;;;;;5009099;28;20047;-63
2022/01/31 04:53:59;;;;;;;23.27;2.53;;;;;;;;;;5041050;28;20088;-63
2022/01/31 04:56:25;;;;;;;21.08;2.40;;;;;;;;;;5024061;28;20050;-63
2022/01/31 04:58:51;;;;;;;18.92;2.40;;;;;;;;;;5040799;28;20049;-62
2022/01/31 05:01:17;;;;;;;29.63;2.80;;;;;;;;;;5009025;28;20053;-63
2022/01/31 05:03:45;;;;;;;24.42;2.83;;;;;;;;;;5041038;28;20132;-63
2022/01/31 05:06:14;;;;;;;24.27;3.38;;;;;;;;;;5039929;28;20451;-63
2022/01/31 05:08:40;;;;;;;27.98;2.53;;;;;;;;;;5041146;28;20038;-63
2022/01/31 05:11:11;;;;;;;26.25;2.97;;;;;;;;;;5040722;28;20076;-63
2022/01/31 05:13:37;;;;;;;27.35;2.83;;;;;;;;;;4976060;28;20096;-63
2022/01/31 05:16:04;;;;;;;35.53;4.13;;;;;;;;;;5023789;28;20048;-63
2022/01/31 05:18:30;;;;;;;26.20;3.17;;;;;;;;;;5001842;28;20137;-63
2022/01/31 05:20:56;;;;;;;36.30;3.20;;;;;;;;;;5007433;28;20092;-63
2022/01/31 05:23:22;;;;;;;28.83;2.30;;;;;;;;;;5007501;28;20037;-63
2022/01/31 05:25:48;;;;;;;23.52;2.70;;;;;;;;;;5039958;28;20049;-61
2022/01/31 05:28:15;;;;;;;27.58;2.90;;;;;;;;;;5006808;28;20088;-63
2022/01/31 05:30:41;;;;;;;34.20;3.40;;;;;;;;;;5040594;28;20044;-61
2022/01/31 05:33:07;;;;;;;32.15;3.05;;;;;;;;;;5039977;28;20054;-63
2022/01/31 05:35:33;;;;;;;32.63;3.42;;;;;;;;;;5007220;28;20046;-63
2022/01/31 05:37:59;;;;;;;25.65;2.60;;;;;;;;;;5040313;28;20045;-61
2022/01/31 05:40:25;;;;;;;30.20;3.10;;;;;;;;;;5006850;28;20056;-62
2022/01/31 05:42:51;;;;;;;28.58;3.50;;;;;;;;;;5008417;28;20042;-62
2022/01/31 05:45:17;;;;;;;25.58;2.47;;;;;;;;;;5006778;28;20125;-62
2022/01/31 05:47:44;;;;;;;17.45;1.67;;;;;;;;;;5008521;28;20046;-62
2022/01/31 05:50:10;;;;;;;34.08;3.33;;;;;;;;;;5007631;28;20060;-62
2022/01/31 05:52:36;;;;;;;29.98;2.95;;;;;;;;;;5006995;28;20050;-63
2022/01/31 05:55:02;;;;;;;22.65;2.42;;;;;;;;;;5003500;28;20476;-63
2022/01/31 05:57:29;;;;;;;22.00;1.88;;;;;;;;;;5006692;28;20050;-61
2022/01/31 05:59:55;;;;;;;18.75;1.90;;;;;;;;;;5008339;28;20038;-62
2022/01/31 06:02:21;;;;;;;21.98;1.77;;;;;;;;;;5023344;28;20054;-62
2022/01/31 06:04:47;;;;;;;20.48;1.40;;;;;;;;;;5006629;28;20045;-61
2022/01/31 06:07:13;;;;;;;16.95;1.35;;;;;;;;;;5008020;28;20044;-62
2022/01/31 06:09:39;;;;;;;19.00;1.85;;;;;;;;;;5022656;28;20046;-62
2022/01/31 06:12:05;;;;;;;14.30;1.30;;;;;;;;;;5005433;28;20045;-62
2022/01/31 06:14:32;;;;;;;19.65;1.67;;;;;;;;;;5006519;28;20480;-62
2022/01/31 06:16:58;;;;;;;21.10;2.13;;;;;;;;;;5008334;28;20575;-62
2022/01/31 06:19:24;;;;;;;26.15;2.65;;;;;;;;;;5006420;28;20045;-62
2022/01/31 06:21:50;;;;;;;20.38;1.35;;;;;;;;;;5008327;28;20048;-62
2022/01/31 06:24:17;;;;;;;18.13;1.40;;;;;;;;;;5040476;28;20518;-62
2022/01/31 06:26:43;;;;;;;23.73;1.70;;;;;;;;;;5039177;28;20099;-62
2022/01/31 06:29:09;;;;;;;17.27;1.52;;;;;;;;;;5041955;28;20052;-63
2022/01/31 06:31:35;;;;;;;18.60;1.13;;;;;;;;;;5009517;28;20037;-62
2022/01/31 06:34:02;;;;;;;22.15;1.80;;;;;;;;;;5008513;28;20527;-63
2022/01/31 06:36:28;;;;;;;12.13;0.90;;;;;;;;;;5009053;28;20116;-63
2022/01/31 06:38:54;;;;;;;18.02;1.00;;;;;;;;;;5042211;28;20051;-62
2022/01/31 06:41:22;;;;;;;21.75;1.55;;;;;;;;;;5009200;28;20042;-62
2022/01/31 06:43:48;;;;;;;17.63;1.25;;;;;;;;;;5011936;28;20053;-62
2022/01/31 06:46:15;;;;;;;20.58;1.75;;;;;;;;;;5010207;28;20054;-62
2022/01/31 06:48:41;;;;;;;26.40;2.13;;;;;;;;;;5011303;28;20034;-62
2022/01/31 06:51:07;;;;;;;23.02;1.65;;;;;;;;;;5010141;28;20066;-61
2022/01/31 06:53:34;;;;;;;25.30;2.42;;;;;;;;;;5042159;28;20034;-63
2022/01/31 06:56:00;;;;;;;21.48;1.80;;;;;;;;;;5010956;28;20120;-62
2022/01/31 06:58:27;;;;;;;23.77;1.55;;;;;;;;;;5008960;28;20145;-62
2022/01/31 07:00:56;;;;;;;20.48;1.58;;;;;;;;;;5010136;28;20117;-63
2022/01/31 07:03:22;;;;;;;17.98;1.70;;;;;;;;;;4993304;28;20402;-63
2022/01/31 07:05:48;;;;;;;27.63;1.77;;;;;;;;;;5009982;28;20177;-62
2022/01/31 07:08:15;;;;;;;18.75;1.50;;;;;;;;;;5007603;28;20042;-62
2022/01/31 07:10:41;;;;;;;24.88;2.08;;;;;;;;;;5009848;28;20121;-62
2022/01/31 07:13:24;;;;;;;24.17;2.30;;;;;;;;;;5008339;28;20498;-63
2022/01/31 07:15:50;;;;;;;19.40;1.73;;;;;;;;;;5039948;28;20038;-62
2022/01/31 07:18:17;;;;;;;25.48;2.30;;;;;;;;;;5008821;28;20085;-62
2022/01/31 07:20:46;;;;;;;25.83;1.38;;;;;;;;;;4975458;28;20057;-62
2022/01/31 07:23:26;;;;;;;19.63;1.73;;;;;;;;;;5009641;28;20049;-62
2022/01/31 07:25:52;;;;;;;22.42;1.60;;;;;;;;;;4990916;28;20447;-63
2022/01/31 07:28:19;;;;;;;23.02;1.92;;;;;;;;;;5024269;28;20129;-63
2022/01/31 07:30:46;;;;;;;21.85;1.95;;;;;;;;;;5039568;28;20063;-63
2022/01/31 07:33:13;;;;;;;19.50;1.50;;;;;;;;;;5040613;28;20081;-62
2022/01/31 07:35:40;;;;;;;17.55;1.40;;;;;;;;;;5040863;28;20096;-62
2022/01/31 07:38:06;;;;;;;18.45;2.40;;;;;;;;;;5009258;28;20046;-63
2022/01/31 07:40:32;;;;;;;20.55;1.48;;;;;;;;;;5007976;28;20444;-62
2022/01/31 07:42:58;;;;;;;21.85;1.70;;;;;;;;;;5040310;28;20052;-64
2022/01/31 07:45:24;;;;;;;20.48;1.25;;;;;;;;;;5009659;28;20056;-62
2022/01/31 07:47:50;;;;;;;22.90;2.03;;;;;;;;;;5008925;28;20053;-62
2022/01/31 07:50:17;;;;;;;29.85;1.65;;;;;;;;;;5041045;28;20041;-62
2022/01/31 07:52:43;;;;;;;22.63;1.90;;;;;;;;;;5007415;28;20420;-63
2022/01/31 07:55:11;;;;;;;21.42;1.85;;;;;;;;;;5007927;28;20065;-62
2022/01/31 07:57:38;;;;;;;26.98;1.80;;;;;;;;;;5040477;28;20132;-62
2022/01/31 08:00:05;;;;;;;24.98;2.00;;;;;;;;;;5039476;28;20053;-63
2022/01/31 08:02:31;;;;;;;22.33;2.70;;;;;;;;;;5009100;28;20151;-63
2022/01/31 08:04:57;;;;;;;21.10;1.80;;;;;;;;;;5008063;28;20395;-62
2022/01/31 08:07:23;;;;;;;22.48;2.15;;;;;;;;;;5007836;28;20042;-62
2022/01/31 08:09:49;;;;;;;25.45;2.15;;;;;;;;;;5008455;28;20037;-61
2022/01/31 08:12:16;;;;;;;26.80;2.00;;;;;;;;;;5007786;28;20629;-62
2022/01/31 08:14:43;;;;;;;25.05;2.17;;;;;;;;;;5040653;28;20037;-62
2022/01/31 08:17:09;;;;;;;30.83;2.33;;;;;;;;;;5008062;28;20080;-63
2022/01/31 08:19:35;;;;;;;23.00;1.80;;;;;;;;;;5009153;28;20129;-62
2022/01/31 08:22:01;;;;;;;22.75;2.08;;;;;;;;;;4990596;28;20069;-62
2022/01/31 08:24:27;;;;;;;25.48;2.75;;;;;;;;;;5040556;28;20049;-63
2022/01/31 08:26:54;;;;;;;22.75;2.10;;;;;;;;;;5008610;28;20046;-62
2022/01/31 08:29:25;;;;;;;25.20;2.50;;;;;;;;;;5008986;28;20045;-62
2022/01/31 08:31:53;;;;;;;19.65;2.05;;;;;;;;;;5006137;28;20113;-62
2022/01/31 08:35:47;;;;;;;24.85;2.40;;;;;;;;;;5006946;28;20107;-62
2022/01/31 08:37:13;;;;;;;27.85;2.40;;;;;;;;;;5007986;28;20077;-63
2022/01/31 08:39:39;;;;;;;15.48;1.67;;;;;;;;;;5008202;28;20400;-63
2022/01/31 08:42:05;;;;;;;20.50;1.75;;;;;;;;;;5007259;28;20042;-63
2022/01/31 08:44:31;;;;;;;24.90;1.77;;;;;;;;;;5007886;28;20412;-62
2022/01/31 08:46:57;;;;;;;22.38;1.95;;;;;;;;;;5007449;28;20131;-62
2022/01/31 08:49:23;;;;;;;25.33;2.58;;;;;;;;;;5007853;28;20111;-62
2022/01/31 08:51:50;;;;;;;23.23;1.98;;;;;;;;;;5005808;28;20392;-63
2022/01/31 08:54:16;;;;;;;22.60;1.95;;;;;;;;;;5007246;28;20121;-64
2022/01/31 08:56:45;;;;;;;24.15;1.80;;;;;;;;;;5007155;28;20524;-63
2022/01/31 08:59:14;;;;;;;29.90;2.72;;;;;;;;;;5038861;28;20045;-63
2022/01/31 09:01:40;;;;;;;30.60;2.28;;;;;;;;;;5007662;28;20053;-62
2022/01/31 09:04:09;;;;;;;23.75;2.00;;;;;;;;;;4990642;28;20096;-62
2022/01/31 09:06:36;;;;;;;18.13;1.80;;;;;;;;;;4988678;28;20057;-62
2022/01/31 09:09:06;;;;;;;17.42;1.77;;;;;;;;;;5022426;28;20037;-62
2022/01/31 09:11:32;;;;;;;22.67;1.90;;;;;;;;;;5006681;28;20176;-62
2022/01/31 09:13:59;;;;;;;19.52;1.75;;;;;;;;;;5006734;28;20357;-62
2022/01/31 09:16:25;;;;;;;20.45;1.33;;;;;;;;;;5009118;28;20052;-62
2022/01/31 09:18:51;;;;;;;21.48;2.03;;;;;;;;;;5009162;28;20083;-63
2022/01/31 09:21:18;;;;;;;18.50;1.85;;;;;;;;;;5007005;28;20088;-63
2022/01/31 09:23:46;;;;;;;20.67;2.00;;;;;;;;;;4989357;28;20049;-61
2022/01/31 09:26:13;;;;;;;17.75;1.05;;;;;;;;;;5039631;28;20131;-62
2022/01/31 09:28:39;;;;;;;20.05;1.42;;;;;;;;;;5007936;28;20034;-62
2022/01/31 09:31:05;;;;;;;22.65;1.52;;;;;;;;;;5006855;28;20037;-62
2022/01/31 09:33:31;;;;;;;19.15;1.10;;;;;;;;;;5006694;28;20046;-63
2022/01/31 09:35:57;;;;;;;19.85;1.30;;;;;;;;;;5021552;28;20057;-63
2022/01/31 09:38:24;;;;;;;17.80;1.25;;;;;;;;;;5039092;28;20404;-62
2022/01/31 09:40:52;;;;;;;12.43;1.10;;;;;;;;;;5022479;28;20479;-62
2022/01/31 09:48:32;;;;;;;14.15;0.90;;;;;;;;;;5037575;28;20140;-63
2022/01/31 09:51:04;;;;;;;11.25;0.90;;;;;;;;;;5038640;28;20068;-62
2022/01/31 09:53:34;;;;;;;10.10;0.70;;;;;;;;;;5007155;28;20033;-63
2022/01/31 09:56:01;;;;;;;9.23;0.43;;;;;;;;;;5007642;28;20704;-62
2022/01/31 09:58:29;;;;;;;7.07;0.40;;;;;;;;;;5007334;28;20504;-62
2022/01/31 10:01:09;;;;;;;9.43;0.60;;;;;;;;;;5006814;28;20050;-62
2022/01/31 10:03:53;;;;;;;7.03;1.02;;;;;;;;;;5009367;28;20068;-63
2022/01/31 10:06:24;;;;;;;9.63;0.73;;;;;;;;;;5009257;28;20103;-63
2022/01/31 10:09:19;;;;;;;12.57;1.10;;;;;;;;;;5010983;28;20217;-63
2022/01/31 10:11:50;;;;;;;16.27;1.08;;;;;;;;;;5001815;28;20126;-64
2022/01/31 10:17:04;;;;;;;11.77;0.90;;;;;;;;;;5044451;28;20676;-62
2022/01/31 10:19:37;;;;;;;15.48;0.90;;;;;;;;;;5009928;28;20415;-62
2022/01/31 10:22:05;;;;;;;12.52;1.20;;;;;;;;;;5010577;28;20092;-63
2022/01/31 10:24:32;;;;;;;12.25;0.95;;;;;;;;;;5010150;28;20125;-61
2022/01/31 10:27:09;;;;;;;15.73;1.50;;;;;;;;;;5013959;28;20034;-62
2022/01/31 10:29:35;;;;;;;16.13;0.98;;;;;;;;;;5016769;28;20104;-61
2022/01/31 10:32:04;;;;;;;14.73;0.98;;;;;;;;;;5043295;28;20037;-62
2022/01/31 10:34:36;;;;;;;9.88;0.88;;;;;;;;;;5043324;28;20053;-62
2022/01/31 10:37:03;;;;;;;8.75;0.70;;;;;;;;;;5043079;28;20046;-63
2022/01/31 10:45:24;;;;;;;16.23;1.35;;;;;;;;;;5042824;28;20068;-62
2022/01/31 10:50:59;;;;;;;16.63;1.90;;;;;;;;;;5042365;28;20104;-63
2022/01/31 10:53:25;;;;;;;17.58;1.40;;;;;;;;;;4992124;28;20549;-63
2022/01/31 10:55:55;;;;;;;17.00;1.33;;;;;;;;;;5012326;28;20041;-63
2022/01/31 10:58:22;;;;;;;20.27;1.60;;;;;;;;;;5014967;28;20048;-61
2022/01/31 11:00:48;;;;;;;23.02;1.98;;;;;;;;;;5042807;28;20052;-61
2022/01/31 11:03:28;;;;;;;17.45;1.92;;;;;;;;;;5011555;28;20411;-60
2022/01/31 11:05:55;;;;;;;17.33;1.70;;;;;;;;;;5042532;28;20125;-62
2022/01/31 11:08:21;;;;;;;23.08;2.20;;;;;;;;;;5010352;28;20885;-62
2022/01/31 11:10:47;;;;;;;16.38;1.65;;;;;;;;;;5043738;28;20080;-62
2022/01/31 11:13:15;;;;;;;18.77;2.38;;;;;;;;;;5012302;28;20133;-62
2022/01/31 11:15:41;;;;;;;19.92;1.83;;;;;;;;;;5009119;28;20056;-61
2022/01/31 11:18:08;;;;;;;17.95;2.08;;;;;;;;;;5009885;28;20050;-63
2022/01/31 11:20:34;;;;;;;18.58;2.40;;;;;;;;;;5007806;28;20045;-62
2022/01/31 11:23:02;;;;;;;16.90;2.08;;;;;;;;;;5011246;28;20038;-61
2022/01/31 11:25:29;;;;;;;14.60;1.90;;;;;;;;;;5008388;28;20061;-61
2022/01/31 11:27:59;;;;;;;18.52;2.08;;;;;;;;;;5025870;28;20053;-60
2022/01/31 11:30:26;;;;;;;23.25;2.80;;;;;;;;;;5010883;28;20041;-61
2022/01/31 11:32:52;;;;;;;23.33;2.30;;;;;;;;;;5046250;28;20469;-60
2022/01/31 11:35:19;;;;;;;26.52;2.70;;;;;;;;;;5042251;28;20050;-61
2022/01/31 11:37:45;;;;;;;25.48;2.80;;;;;;;;;;5011505;28;20041;-62
2022/01/31 11:40:12;;;;;;;24.70;2.53;;;;;;;;;;5041609;28;20046;-61
2022/01/31 11:42:41;;;;;;;25.17;3.28;;;;;;;;;;5010616;28;20133;-61
2022/01/31 11:45:08;;;;;;;26.20;2.75;;;;;;;;;;5009125;28;20049;-61
2022/01/31 11:47:36;;;;;;;22.90;2.75;;;;;;;;;;5010789;28;20497;-61
2022/01/31 11:50:05;;;;;;;24.27;3.15;;;;;;;;;;5011109;28;20048;-62
2022/01/31 11:52:33;;;;;;;20.83;2.30;;;;;;;;;;5011719;28;20041;-61
2022/01/31 11:55:01;;;;;;;24.55;2.92;;;;;;;;;;4994586;28;20171;-61
2022/01/31 11:57:30;;;;;;;20.90;2.28;;;;;;;;;;5012082;28;20139;-61
2022/01/31 11:59:57;;;;;;;17.83;1.92;;;;;;;;;;5040262;28;20389;-61
2022/01/31 12:02:24;;;;;;;22.17;2.50;;;;;;;;;;5005899;28;20037;-61
2022/01/31 12:04:50;;;;;;;25.90;2.90;;;;;;;;;;5040815;28;20396;-61
2022/01/31 12:07:30;;;;;;;25.02;2.78;;;;;;;;;;5010257;28;20042;-61
2022/01/31 12:09:58;;;;;;;21.85;3.30;;;;;;;;;;5010368;28;20053;-62
2022/01/31 12:12:44;;;;;;;23.42;2.70;;;;;;;;;;5010215;28;20459;-62
2022/01/31 12:15:39;;;;;;;29.73;3.33;;;;;;;;;;5009039;28;20049;-61
2022/01/31 12:23:36;;;;;;;31.42;3.55;;;;;;;;;;5010600;28;20458;-61
2022/01/31 12:26:03;;;;;;;31.48;3.40;;;;;;;;;;5009161;28;20048;-61
2022/01/31 12:28:37;;;;;;;28.27;3.38;;;;;;;;;;5009014;28;20133;-62
2022/01/31 12:31:02;;;;;;;;;;;;;;;;;;4991792;28;20050;-62
2022/01/31 12:33:42;;;;;;;25.60;2.50;;;;;;;;;;5041144;28;19936;-62
2022/01/31 12:36:08;;;;;;;24.65;2.80;;;;;;;;;;5040373;28;20050;-63
2022/01/31 12:38:35;;;;;;;24.98;2.92;;;;;;;;;;5007706;28;20060;-62
2022/01/31 12:41:05;;;;;;;31.98;2.92;;;;;;;;;;5005141;28;20045;-62
2022/01/31 12:46:09;;;;;;;28.05;3.40;;;;;;;;;;5022170;28;20503;-62
2022/01/31 12:48:36;;;;;;;20.65;2.70;;;;;;;;;;5008656;28;20034;-61
2022/01/31 12:51:03;;;;;;;22.35;2.38;;;;;;;;;;4990718;28;20042;-63
2022/01/31 12:56:03;;;;;;;25.98;3.10;;;;;;;;;;5039868;28;20362;-62
2022/01/31 12:58:33;;;;;;;25.35;2.97;;;;;;;;;;5006104;28;20034;-62
2022/01/31 13:01:08;;;;;;;26.08;2.75;;;;;;;;;;5008459;28;20125;-63
2022/01/31 13:03:35;;;;;;;28.83;2.88;;;;;;;;;;5002885;28;20349;-62
2022/01/31 13:06:01;;;;;;;27.75;2.78;;;;;;;;;;5040146;28;20086;-62
2022/01/31 13:08:27;;;;;;;28.98;2.70;;;;;;;;;;5006912;28;20037;-62
2022/01/31 13:10:55;;;;;;;27.63;2.70;;;;;;;;;;5040489;28;20377;-62
2022/01/31 13:13:31;;;;;;;33.78;3.28;;;;;;;;;;5007172;28;20356;-62
2022/01/31 13:16:04;;;;;;;36.47;3.38;;;;;;;;;;5007073;28;20431;-63
2022/01/31 13:18:32;;;;;;;29.33;2.45;;;;;;;;;;5039894;28;20443;-63
2022/01/31 13:20:59;;;;;;;11.52;0.75;;;;;;;;;;5006616;28;20049;-63
2022/01/31 13:23:26;;;;;;;9.32;0.77;;;;;;;;;;5007917;28;20088;-62
2022/01/31 13:25:59;;;;;;;7.15;0.50;;;;;;;;;;5040417;28;20439;-61
2022/01/31 13:28:25;;;;;;;10.52;0.68;;;;;;;;;;5006836;28;20423;-62
2022/01/31 13:30:51;;;;;;;7.28;0.60;;;;;;;;;;5006634;28;20045;-62
2022/01/31 13:33:18;;;;;;;7.30;0.40;;;;;;;;;;5040299;28;20103;-61
2022/01/31 13:35:44;;;;;;;8.70;0.40;;;;;;;;;;5007884;28;20802;-62
2022/01/31 13:38:12;;;;;;;6.95;0.55;;;;;;;;;;5009353;28;20053;-62
2022/01/31 13:40:44;;;;;;;13.75;1.05;;;;;;;;;;5010890;28;20053;-63
2022/01/31 13:43:22;;;;;;;19.00;3.50;;;;;;;;;;5010510;28;20050;-62
2022/01/31 13:46:06;;;;;;;27.20;5.95;;;;;;;;;;5043858;28;20058;-62
2022/01/31 13:48:45;;;;;;;27.55;7.32;;;;;;;;;;5027394;28;20046;-62
2022/01/31 13:51:14;;;;;;;28.42;7.63;;;;;;;;;;5011285;28;20116;-62
2022/01/31 13:53:42;;;;;;;27.70;8.40;;;;;;;;;;5042192;28;20046;-62
2022/01/31 13:56:09;;;;;;;33.45;7.55;;;;;;;;;;5010144;28;20431;-63
2022/01/31 13:58:36;;;;;;;37.92;8.52;;;;;;;;;;5007967;28;20038;-63
2022/01/31 14:01:02;;;;;;;26.45;7.35;;;;;;;;;;5010208;28;20045;-63
2022/01/31 14:03:30;;;;;;;30.42;7.88;;;;;;;;;;4993293;28;20045;-64
2022/01/31 14:05:58;;;;;;;31.50;8.32;;;;;;;;;;5009255;28;20517;-63
2022/01/31 14:08:36;;;;;;;22.13;7.13;;;;;;;;;;5008799;28;20045;-63
2022/01/31 14:11:14;;;;;;;23.02;7.13;;;;;;;;;;5009017;28;20057;-64
2022/01/31 14:13:45;;;;;;;25.92;7.47;;;;;;;;;;5041823;28;20149;-63
2022/01/31 14:16:14;;;;;;;22.63;9.18;;;;;;;;;;5010224;28;20042;-63
2022/01/31 14:18:43;;;;;;;27.38;8.90;;;;;;;;;;5011540;28;20052;-63
2022/01/31 14:21:09;;;;;;;22.40;8.57;;;;;;;;;;5010706;28;20096;-63
2022/01/31 14:23:39;;;;;;;23.38;8.70;;;;;;;;;;5027268;28;20042;-62
2022/01/31 14:26:06;;;;;;;21.50;9.15;;;;;;;;;;5011809;28;20408;-63
2022/01/31 14:28:35;;;;;;;20.15;9.27;;;;;;;;;;5044109;28;20042;-63
2022/01/31 14:31:01;;;;;;;15.38;8.13;;;;;;;;;;5043425;28;20064;-62
2022/01/31 14:33:27;;;;;;;18.42;8.07;;;;;;;;;;5009774;28;20637;-62
2022/01/31 14:36:07;;;;;;;13.48;7.45;;;;;;;;;;5042799;28;20050;-61
2022/01/31 14:38:46;;;;;;;18.50;7.35;;;;;;;;;;5009140;28;20488;-60
2022/01/31 14:50:07;;;;;;;15.52;6.70;;;;;;;;;;4971576;28;20081;-61
2022/01/31 14:52:33;;;;;;;18.00;7.85;;;;;;;;;;4988749;28;20050;-60
2022/01/31 14:55:01;;;;;;;12.10;6.13;;;;;;;;;;4983588;28;20056;-60
2022/01/31 14:57:27;;;;;;;10.13;5.55;;;;;;;;;;4993390;28;20054;-62
2022/01/31 14:59:53;;;;;;;6.43;4.18;;;;;;;;;;5010590;28;20046;-62
2022/01/31 15:02:19;;;;;;;9.52;3.72;;;;;;;;;;5010662;28;20041;-61
2022/01/31 15:04:45;;;;;;;10.50;3.67;;;;;;;;;;5011078;28;20044;-61
2022/01/31 15:07:13;;;;;;;9.45;3.80;;;;;;;;;;5009427;28;20050;-61
2022/01/31 15:09:39;;;;;;;14.48;4.20;;;;;;;;;;5010840;28;20641;-61
2022/01/31 15:12:05;;;;;;;13.73;4.00;;;;;;;;;;5041673;28;20045;-61